Lexington Weather

Lexington, Massachusetts, USA

68°F
7/3/2020 12:04pm 
  • Lexington Conditions: Overcast
  • Temperature: 68.4°F / 20.2°CColder 0.9°F than last hour.
  • Dew Point: 64.4°FDecreased 1.4°Fsince last hour.
  • Relative Humidity: 87%Decreased 2.0% since last hour.
  • Wind: Wind from NNE NNE 1 mph, 10-min avg: 2 mph, gust: 4 mph
  • Barometer: 29.86 inRising 0.02  inHg/hr Rising Slowly
  • Visibility: 10 miles
  • Rain Today: 0.00 in
  •   

Nearby Reports - Official Weather Stations - Current Conditions

Data from the National Weather Service

KBED - Bedford, MA


Distance from station: WNW 4mi, 6km

Updated Fri Jul 3, 2020 11:51am EDT

Overcast

Overcast

Wind from NNE

Wind:

NNE 12 mph, 19 km/h

Temperature: 70°F (21°C)

Dew Point: 63°F (17°C)

Humidity: 78%

Barometer: 29.90 in (1012.5 hPa)

Clouds: Overcast

Visibility: 10 miles (16 km)

Cloud details: Overcast 1100 ft


2020/07/03 15:51 KBED 031551Z 03010KT 10SM OVC011 21/17 A2990 RMK AO2 SLP136 T02060167

KBOS - Boston, MA


Distance from station: ESE 12mi, 20km

Updated Fri Jul 3, 2020 11:54am EDT

Overcast

Overcast

Wind from NNE

Wind:

NNE 17 mph, 28 km/h,
Gust: 22 mph, 35 km/h

Temperature: 70°F (21°C)

Dew Point: 61°F (16°C)

Humidity: 73%

Barometer: 29.91 in (1012.9 hPa)

Clouds: Overcast

Visibility: 10 miles (16 km)

Cloud details: Overcast 1700 ft


2020/07/03 15:54 KBOS 031554Z 03015G19KT 10SM OVC017 21/16 A2991 RMK AO2 SLP127 T02110161 $

KOWD - Norwood, MA


Distance from station: SSE 18mi, 29km

Updated Fri Jul 3, 2020 11:53am EDT

Overcast

Overcast

Wind from ENE

Wind:

ENE 13 mph, 20 km/h,
Gust: 18 mph, 30 km/h

Temperature: 73°F (23°C)

Dew Point: 63°F (17°C)

Humidity: 69%

Barometer: 29.90 in (1012.5 hPa)

Clouds: Overcast

Visibility: 10 miles (16 km)

Cloud details: Overcast 1400 ft


2020/07/03 15:53 KOWD 031553Z 06011G16KT 10SM OVC014 23/17 A2990 RMK AO2 SLP123 T02280172

KBVY - Beverly, MA


Distance from station: ENE 19mi, 31km

Updated Fri Jul 3, 2020 11:53am EDT

Overcast

Overcast

Wind from NNE

Wind:

NNE 10 mph, 17 km/h,
Gust: 21 mph, 33 km/h

Temperature: 66°F (19°C)

Dew Point: 61°F (16°C)

Humidity: 83%

Barometer: 29.91 in (1012.9 hPa)

Clouds: Overcast

Visibility: 10 miles (16 km)

Cloud details: Overcast 1000 ft


2020/07/03 15:53 KBVY 031553Z 02009G18KT 10SM OVC010 19/16 A2991 RMK AO2 SLP122 T01940161 $

KLWM - Lawrence, MA


Distance from station: NNE 20mi, 32km

Updated Fri Jul 3, 2020 11:54am EDT

Overcast

Overcast

Wind from NE

Wind:

NE 14 mph, 22 km/h

Temperature: 66°F (19°C)

Dew Point: 61°F (16°C)

Humidity: 83%

Barometer: 29.94 in (1013.9 hPa)

Clouds: Overcast

Visibility: 10 miles (16 km)

Cloud details: Overcast 1100 ft


2020/07/03 15:54 KLWM 031554Z 05012KT 10SM OVC011 19/16 A2994 RMK AO2 SLP136 T01940161

KFIT - Fitchburg, MA


Distance from station: WNW 27mi, 44km

Updated Fri Jul 3, 2020 11:52am EDT

Light rain, Mist, Overcast

Light rain, Mist, Overcast

Wind from ESE

Wind:

ESE 6 mph, 9 km/h

Temperature: 68°F (20°C)

Dew Point: 64°F (18°C)

Humidity: 88%

Barometer: 29.92 in (1013.2 hPa)

Summary: Light rain, Mist

Clouds: Overcast

Visibility: 5 miles (8 km)

Cloud details: Overcast 900 ft


2020/07/03 15:52 KFIT 031552Z AUTO 12005KT 5SM -RA BR OVC009 20/18 A2992 RMK AO2 RAB16 SLP130 P0000 T02000178

KASH - Nashua/Boire Fld, NH


Distance from station: NNW 28mi, 44km

Updated Fri Jul 3, 2020 11:56am EDT

Mist, Overcast

Mist, Overcast

Wind from varies

Wind:

varies 7 mph, 11 km/h

Temperature: 70°F (21°C)

Dew Point: 66°F (19°C)

Humidity: 88%

Barometer: 29.92 in (1013.2 hPa)

Summary: Mist

Clouds: Overcast

Visibility: 10 miles (16 km)

Cloud details: Mostly cloudy 1000 ft
Overcast 1600 ft


2020/07/03 15:56 KASH 031556Z VRB06KT 10SM BR BKN010 OVC016 21/19 A2992 RMK AO2 RAB05E22 SLP135 P0000 T02110194

KORH - Worcester, MA


Distance from station: WSW 34mi, 55km

Updated Fri Jul 3, 2020 11:54am EDT

Overcast

Overcast

Wind from ENE

Wind:

ENE 10 mph, 17 km/h

Temperature: 70°F (21°C)

Dew Point: 64°F (18°C)

Humidity: 83%

Barometer: 29.92 in (1013.2 hPa)

Clouds: Overcast

Visibility: 10 miles (16 km)

Cloud details: Overcast 800 ft


2020/07/03 15:54 KORH 031554Z 06009KT 10SM OVC008 21/18 A2992 RMK AO2 SLP126 T02110178

KMHT - Manchester, NH


Distance from station: NNW 35mi, 57km

Updated Fri Jul 3, 2020 11:53am EDT

Overcast

Overcast

Wind from E

Wind:

E 12 mph, 19 km/h

Temperature: 70°F (21°C)

Dew Point: 64°F (18°C)

Humidity: 83%

Barometer: 29.90 in (1012.5 hPa)

Clouds: Overcast

Visibility: 10 miles (16 km)

Cloud details: Overcast 800 ft


2020/07/03 15:53 KMHT 031553Z 08010KT 10SM OVC008 21/18 A2990 RMK AO2 CIG 007V012 SLP137 T02060178

KGHG - Marshfield, MA


Distance from station: SE 38mi, 60km

Updated Fri Jul 3, 2020 11:55am EDT

Overcast

Overcast

Wind from N

Wind:

N 12 mph, 19 km/h,
Gust: 18 mph, 30 km/h

Temperature: 70°F (21°C)

Dew Point: 64°F (18°C)

Humidity: 83%

Barometer: 29.89 in (1012.2 hPa)

Clouds: Overcast

Visibility: 10 miles (16 km)

Cloud details: Overcast 700 ft


2020/07/03 15:55 KGHG 031555Z AUTO 01010G16KT 340V050 10SM OVC007 21/18 A2989 RMK AO2

KSFZ - Pawtucket, RI


Distance from station: SSW 39mi, 62km

Updated Fri Jul 3, 2020 11:56am EDT

Overcast

Overcast

Wind from ENE

Wind:

ENE 10 mph, 17 km/h

Temperature: 72°F (22°C)

Dew Point: 66°F (19°C)

Humidity: 83%

Barometer: 29.89 in (1012.2 hPa)

Clouds: Overcast

Visibility: 10 miles (16 km)

Cloud details: Overcast 1200 ft


2020/07/03 15:56 KSFZ 031556Z AUTO 06009KT 10SM OVC012 22/19 A2989 RMK AO2 SLP068 T02170189

KTAN - Taunton, MA


Distance from station: SSE 40mi, 65km

Updated Fri Jul 3, 2020 11:52am EDT

Overcast

Overcast

Wind from varies

Wind:

varies 5 mph, 7 km/h

Temperature: 75°F (24°C)

Dew Point: 64°F (18°C)

Humidity: 69%

Barometer: 29.87 in (1011.5 hPa)

Clouds: Overcast

Visibility: 10 miles (16 km)

Cloud details: Overcast 1800 ft


2020/07/03 15:52 KTAN 031552Z AUTO VRB04KT 10SM OVC018 24/18 A2987 RMK AO2 SLP113 T02390178

KPYM - Plymouth, MA


Distance from station: SE 44mi, 72km

Updated Thu Jul 2, 2020 7:52pm EDT (NOT Current)

Clear

Clear

Wind from SSW

Wind:

SSW 7 mph, 11 km/h

Temperature: 79°F (26°C)

Dew Point: 66°F (19°C)

Humidity: 65%

Barometer: 29.74 in (1007.1 hPa)

Clouds: Clear

Visibility: 10 miles (16 km)


2020/07/02 23:52 KPYM 022352Z AUTO 21006KT 10SM CLR 26/19 A2974 RMK AO2 SLP070 T02560194 10294 20256 53002

KAFN - Jaffrey, NH


Distance from station: WNW 46mi, 74km

Updated Fri Jul 3, 2020 11:52am EDT

Overcast

Overcast

Wind from calm

Wind:

Calm

Temperature: 70°F (21°C)

Dew Point: 64°F (18°C)

Humidity: 83%

Barometer: 29.93 in (1013.5 hPa)

Clouds: Overcast

Visibility: 10 miles (16 km)

Cloud details: Mostly cloudy 900 ft
Overcast 2600 ft


2020/07/03 15:52 KAFN 031552Z AUTO 00000KT 10SM BKN009 OVC026 21/18 A2993 RMK AO2 RAE32 CIG 007V013 SLP133 P0000 T02060183

KPSM - Portsmouth/Pease, NH


Distance from station: NNE 48mi, 78km

Updated Fri Jul 3, 2020 11:56am EDT

Overcast

Overcast

Wind from NE

Wind:

NE 13 mph, 20 km/h,
Gust: 21 mph, 33 km/h

Temperature: 68°F (20°C)

Dew Point: 59°F (15°C)

Humidity: 73%

Barometer: 29.92 in (1013.2 hPa)

Clouds: Overcast

Visibility: 7 miles (11 km)

Cloud details: Overcast 1200 ft


2020/07/03 15:56 KPSM 031556Z 05011G18KT 7SM OVC012 20/15 A2992 RMK AO2A SLP134 T01960148

KPVD - Providence/Green, RI


Distance from station: S 51mi, 82km

Updated Fri Jul 3, 2020 11:51am EDT

Overcast

Overcast

Wind from NNE

Wind:

NNE 15 mph, 24 km/h

Temperature: 75°F (24°C)

Dew Point: 66°F (19°C)

Humidity: 74%

Barometer: 29.87 in (1011.5 hPa)

Clouds: Overcast

Visibility: 10 miles (16 km)

Cloud details: Overcast 1700 ft


2020/07/03 15:51 KPVD 031551Z 03013KT 10SM OVC017 24/19 A2987 RMK AO2 SLP115 T02440194

KCON - Concord, NH


Distance from station: NNW 54mi, 87km

Updated Fri Jul 3, 2020 11:51am EDT

Overcast

Overcast

Wind from E

Wind:

E 9 mph, 15 km/h

Temperature: 70°F (21°C)

Dew Point: 64°F (18°C)

Humidity: 83%

Barometer: 29.92 in (1013.2 hPa)

Clouds: Overcast

Visibility: 10 miles (16 km)

Cloud details: Overcast 1400 ft


2020/07/03 15:51 KCON 031551Z AUTO 08008KT 10SM OVC014 21/18 A2992 RMK AO2 SLP129 T02110183

KEWB - New Bedford, MA


Distance from station: SSE 54mi, 87km

Updated Fri Jul 3, 2020 11:53am EDT

Overcast

Overcast

Wind from NNE

Wind:

NNE 10 mph, 17 km/h,
Gust: 17 mph, 28 km/h

Temperature: 77°F (25°C)

Dew Point: 66°F (19°C)

Humidity: 69%

Barometer: 29.85 in (1010.8 hPa)

Clouds: Overcast

Visibility: 10 miles (16 km)

Cloud details: Overcast 1600 ft


2020/07/03 15:53 KEWB 031553Z 02009G15KT 10SM OVC016 25/19 A2985 RMK AO2 SLP108 T02500194 $

KCEF - Chicopee/Westover, Massachusetts, USA


Distance from station: WSW 67mi, 108km

Updated Fri Jul 3, 2020 10:56am EDT

Mostly cloudy

Mostly cloudy

Wind from calm

Wind:

Calm

Temperature: 81°F (27°C)

Heat Index: 84°F (29°C)

Dew Point: 68°F (20°C)

Humidity: 66%

Barometer: 29.84 in (1010.5 hPa)

Clouds: Mostly cloudy

Visibility: 10 miles (16 km)

Cloud details: Few Clouds 2800 ft
Mostly cloudy 6000 ft
Mostly cloudy 12000 ft


2020/07/03 14:56 KCEF 031456Z 00000KT 10SM FEW028 BKN060 BKN120 27/20 A2984 RMK AO2A SLP109 WND DATA ESTMD T02720200 52008

KMWN - Mount Washington, NH


Distance from station: N 126mi, 203km

Updated Fri Jul 3, 2020 10:52am EDT

Fog, Overcast

Fog, Overcast

Wind from N

Wind:

N 10 mph, 17 km/h

Temperature: 54°F (12°C)

Dew Point: 54°F (12°C)

Humidity: 100%

Summary: Fog

Clouds: Overcast

Visibility: ¼ mile (0 km)

Cloud details: Overcast 200 ft


2020/07/03 14:52 KMWN 031452Z 35009KT 1/4SM FG VV002 12/12 RMK